Time;durP1;ratioP1;P1;durP2;ratioP2;P2;SDS_P1;SDS_P2;PMS_P1;PMS_P2;Temp;Humidity;BMP_temperature;BMP_pressure;BME280_temperature;BME280_humidity;BME280_pressure;Samples;Min_cycle;Max_cycle;Signal;HPM_P1;HPM_P2
2022/05/16 00:01:32;;;;;;;4.15;1.60;;;;;;;13.94;54.37;101477.22;5115725;27;20056;-74
2022/05/16 00:03:58;;;;;;;4.05;1.80;;;;;;;13.96;54.25;101481.50;5114988;27;20438;-74
2022/05/16 00:06:25;;;;;;;4.22;1.77;;;;;;;14.11;53.48;101480.66;5126456;27;20066;-74
2022/05/16 00:08:53;;;;;;;3.85;1.70;;;;;;;14.25;52.93;101479.91;5106230;27;20093;-74
2022/05/16 00:11:20;;;;;;;9.50;1.83;;;;;;;14.29;53.04;101491.97;5105382;27;20056;-74
2022/05/16 00:13:47;;;;;;;3.53;1.65;;;;;;;14.26;52.99;101483.38;5102065;28;20048;-74
2022/05/16 00:16:15;;;;;;;5.93;2.10;;;;;;;14.25;52.89;101492.22;5109008;28;20048;-74
2022/05/16 00:18:41;;;;;;;6.72;2.20;;;;;;;14.29;52.52;101480.56;5108632;27;20048;-74
2022/05/16 00:21:07;;;;;;;5.35;2.03;;;;;;;14.04;53.63;101481.91;5108711;27;20101;-74
2022/05/16 00:23:34;;;;;;;6.43;2.20;;;;;;;13.95;53.76;101482.41;5108530;28;20039;-75
2022/05/16 00:26:00;;;;;;;6.22;1.92;;;;;;;13.64;54.47;101477.91;5107416;28;20084;-74
2022/05/16 00:28:26;;;;;;;3.78;1.95;;;;;;;13.68;54.59;101485.66;5107739;28;20079;-74
2022/05/16 00:30:53;;;;;;;3.40;1.77;;;;;;;13.69;54.53;101487.38;5107855;28;20136;-74
2022/05/16 00:33:20;;;;;;;6.07;2.15;;;;;;;13.64;55.39;101470.00;5111869;27;20068;-74
2022/05/16 00:35:47;;;;;;;4.70;1.90;;;;;;;13.61;55.38;101471.94;5112602;27;20043;-74
2022/05/16 00:38:13;;;;;;;4.85;2.28;;;;;;;13.54;55.55;101481.97;5112585;27;20055;-74
2022/05/16 00:40:39;;;;;;;3.90;2.15;;;;;;;13.51;56.08;101473.38;5111296;27;20112;-74
2022/05/16 00:43:08;;;;;;;4.63;2.17;;;;;;;13.41;56.13;101465.09;5112563;27;20051;-74
2022/05/16 00:45:34;;;;;;;5.43;1.98;;;;;;;13.42;55.54;101464.16;5107950;27;20510;-74
2022/05/16 00:48:02;;;;;;;5.70;2.13;;;;;;;13.16;56.24;101464.63;5100096;27;20112;-74
2022/05/16 00:50:32;;;;;;;5.78;2.53;;;;;;;12.76;57.28;101460.50;5111170;27;20039;-75
2022/05/16 00:52:59;;;;;;;7.75;1.95;;;;;;;12.61;57.79;101459.47;5104655;27;20435;-74
2022/05/16 00:55:30;;;;;;;4.03;2.00;;;;;;;12.96;56.45;101456.88;5108333;27;20403;-73
2022/05/16 00:58:01;;;;;;;2.60;1.70;;;;;;;13.08;56.31;101457.09;5111961;27;20499;-73
2022/05/16 01:00:31;;;;;;;5.43;1.85;;;;;;;13.19;56.07;101463.66;5111147;28;20040;-73
2022/05/16 01:05:46;;;;;;;3.83;2.08;;;;;;;13.08;55.99;101464.16;5112207;27;20112;-74
2022/05/16 01:08:17;;;;;;;4.05;1.80;;;;;;;13.07;56.00;101460.69;5112034;28;20048;-73
2022/05/16 01:10:44;;;;;;;7.65;2.05;;;;;;;12.92;56.50;101458.81;5110815;27;20566;-74
2022/05/16 01:13:11;;;;;;;2.83;1.90;;;;;;;12.80;56.79;101450.66;5111847;27;20043;-74
2022/05/16 01:15:41;;;;;;;5.05;1.90;;;;;;;12.84;56.48;101455.69;5111832;27;20085;-74
2022/05/16 01:18:11;;;;;;;4.57;2.10;;;;;;;12.96;56.47;101457.72;5111719;27;20043;-74
2022/05/16 01:20:55;;;;;;;4.88;1.98;;;;;;;12.53;57.49;101464.22;5110790;27;20047;-74
2022/05/16 01:23:25;;;;;;;3.22;1.67;;;;;;;12.43;57.92;101462.13;5111385;28;20058;-74
2022/05/16 01:25:53;;;;;;;3.55;1.88;;;;;;;12.50;57.98;101448.59;5111881;28;20047;-74
2022/05/16 01:28:23;;;;;;;3.97;2.00;;;;;;;12.41;58.29;101449.06;5111631;27;20079;-73
2022/05/16 01:30:51;;;;;;;4.50;1.98;;;;;;;12.67;57.68;101443.38;5107569;27;20043;-73
2022/05/16 01:33:19;;;;;;;5.00;3.05;;;;;;;12.89;56.70;101439.69;5111377;27;20090;-73
2022/05/16 01:35:46;;;;;;;6.75;2.30;;;;;;;12.94;56.58;101437.66;5111415;27;20400;-73
2022/05/16 01:38:22;;;;;;;4.25;2.00;;;;;;;13.00;56.08;101445.28;5111130;27;20047;-73
2022/05/16 01:40:52;;;;;;;8.25;2.50;;;;;;;13.11;55.72;101435.94;5102099;27;20609;-73
2022/05/16 01:43:21;;;;;;;5.40;2.17;;;;;;;13.19;55.51;101439.94;5092058;28;20047;-73
2022/05/16 01:45:47;;;;;;;4.82;2.03;;;;;;;13.25;55.13;101445.75;5091172;28;20052;-73
2022/05/16 01:48:15;;;;;;;5.30;2.10;;;;;;;13.59;54.67;101450.97;5107597;27;20051;-73
2022/05/16 01:50:43;;;;;;;4.22;2.30;;;;;;;13.56;54.46;101450.28;5110416;27;20088;-74
2022/05/16 01:53:10;;;;;;;4.47;2.25;;;;;;;13.55;54.37;101446.78;5110002;27;20548;-74
2022/05/16 01:55:36;;;;;;;5.68;2.63;;;;;;;13.55;54.34;101441.53;5090585;28;20496;-74
2022/05/16 01:58:05;;;;;;;7.30;2.40;;;;;;;13.67;54.16;101447.06;5097770;28;20116;-75
2022/05/16 02:00:32;;;;;;;5.32;2.38;;;;;;;13.68;54.25;101446.97;5114913;27;20040;-74
2022/05/16 02:02:58;;;;;;;6.30;2.40;;;;;;;13.76;53.91;101443.94;5109265;27;20503;-74
2022/05/16 02:05:25;;;;;;;4.32;2.35;;;;;;;13.78;53.93;101442.94;5128322;27;20103;-74
2022/05/16 02:07:52;;;;;;;4.57;2.08;;;;;;;13.61;54.29;101440.34;5127285;27;20040;-74
2022/05/16 02:10:21;;;;;;;5.05;2.80;;;;;;;13.37;54.56;101437.22;5107727;27;20492;-74
2022/05/16 02:12:48;;;;;;;4.80;2.40;;;;;;;13.05;55.76;101443.22;5110657;27;20402;-75
2022/05/16 02:15:18;;;;;;;4.18;2.30;;;;;;;12.87;56.43;101447.66;5110344;27;20059;-75
2022/05/16 02:17:45;;;;;;;5.93;2.15;;;;;;;12.74;56.38;101437.81;5110244;27;20039;-75
2022/05/16 02:20:13;;;;;;;4.68;2.33;;;;;;;12.32;58.01;101428.47;5103003;27;20046;-75
2022/05/16 02:25:23;;;;;;;9.10;2.60;;;;;;;12.36;58.41;101419.50;5106537;27;20116;-74
2022/05/16 02:27:50;;;;;;;4.60;2.50;;;;;;;12.53;58.00;101411.63;5103975;27;20093;-74
2022/05/16 02:30:20;;;;;;;6.22;2.53;;;;;;;12.75;57.21;101403.50;5104630;27;20068;-74
2022/05/16 02:32:46;;;;;;;4.65;2.40;;;;;;;12.78;57.20;101398.13;5109969;27;20054;-74
2022/05/16 02:35:13;;;;;;;6.18;2.42;;;;;;;12.72;57.40;101397.56;5110030;27;20130;-74
2022/05/16 02:37:40;;;;;;;5.75;2.65;;;;;;;12.71;57.07;101398.50;5109676;27;20116;-74
2022/05/16 02:40:07;;;;;;;9.93;3.25;;;;;;;13.04;56.12;101396.81;5109448;27;20043;-74
2022/05/16 02:42:34;;;;;;;5.15;2.53;;;;;;;12.64;57.48;101392.69;5110249;28;20104;-74
2022/05/16 02:45:00;;;;;;;5.75;2.50;;;;;;;12.63;57.52;101391.84;5110163;28;20085;-75
2022/05/16 02:47:28;;;;;;;7.53;2.80;;;;;;;12.70;57.53;101384.50;5109623;27;20435;-74
2022/05/16 02:49:54;;;;;;;5.70;2.80;;;;;;;12.72;57.41;101394.94;5108385;27;20195;-74
2022/05/16 02:52:21;;;;;;;4.38;2.55;;;;;;;12.71;57.65;101385.34;5109891;27;20043;-74
2022/05/16 02:54:47;;;;;;;8.38;3.20;;;;;;;12.69;57.86;101378.38;5109666;28;20048;-74
2022/05/16 02:57:13;;;;;;;5.07;2.70;;;;;;;12.88;57.04;101370.41;5108215;27;20055;-74
2022/05/16 02:59:40;;;;;;;7.18;2.65;;;;;;;13.08;56.37;101378.09;5108241;27;20036;-74
2022/05/16 03:02:09;;;;;;;6.93;2.92;;;;;;;12.98;56.98;101371.63;5109501;28;20063;-74
2022/05/16 03:04:47;;;;;;;8.48;2.70;;;;;;;12.94;56.96;101374.47;5106880;28;20047;-74
2022/05/16 03:07:14;;;;;;;5.15;2.72;;;;;;;12.97;57.40;101377.00;5108101;28;20092;-74
2022/05/16 03:09:41;;;;;;;12.32;2.90;;;;;;;12.67;58.52;101374.94;5108010;28;20126;-74
2022/05/16 03:12:08;;;;;;;7.43;2.83;;;;;;;12.95;57.53;101379.69;5109368;27;20051;-74
2022/05/16 03:14:35;;;;;;;8.00;3.25;;;;;;;12.88;57.90;101375.66;5108992;28;20097;-74
2022/05/16 03:17:02;;;;;;;7.30;3.70;;;;;;;12.52;59.07;101381.00;5110080;28;20067;-74
2022/05/16 03:19:30;;;;;;;6.72;2.80;;;;;;;12.40;59.22;101371.09;5108566;27;20472;-74
2022/05/16 03:21:58;;;;;;;7.55;3.35;;;;;;;12.59;58.78;101382.41;5109750;27;20040;-74
2022/05/16 03:24:24;;;;;;;5.05;3.05;;;;;;;12.72;58.47;101373.88;5109915;27;20501;-74
2022/05/16 03:26:51;;;;;;;9.18;3.10;;;;;;;12.80;57.99;101374.34;5109188;27;20059;-74
2022/05/16 03:29:17;;;;;;;5.32;2.88;;;;;;;12.67;58.19;101377.59;5108502;27;20047;-75
2022/05/16 03:31:44;;;;;;;5.93;2.90;;;;;;;12.61;58.44;101372.63;5109161;27;20048;-75
2022/05/16 03:34:12;;;;;;;6.57;3.10;;;;;;;12.72;58.32;101374.72;5109585;28;20096;-75
2022/05/16 03:36:39;;;;;;;5.97;2.75;;;;;;;12.59;58.38;101379.78;5109760;28;20452;-75
2022/05/16 03:41:53;;;;;;;5.57;3.05;;;;;;;12.37;59.54;101373.00;5101149;27;20050;-75
2022/05/16 03:44:20;;;;;;;12.38;3.53;;;;;;;12.25;59.79;101377.09;5108755;27;20055;-75
2022/05/16 03:46:47;;;;;;;7.22;3.15;;;;;;;12.30;59.86;101372.47;5109140;27;20047;-75
2022/05/16 03:49:14;;;;;;;6.97;3.05;;;;;;;12.22;60.07;101384.28;5108570;27;20069;-75
2022/05/16 03:51:40;;;;;;;5.75;2.67;;;;;;;12.13;60.85;101370.63;5109325;27;20096;-75
2022/05/16 03:54:09;;;;;;;3.60;2.58;;;;;;;11.92;61.38;101376.06;5108477;27;20092;-75
2022/05/16 03:56:35;;;;;;;10.65;3.60;;;;;;;11.80;61.80;101376.63;5108896;28;20048;-75
2022/05/16 03:59:02;;;;;;;7.35;3.03;;;;;;;12.06;61.27;101381.50;5108661;28;20435;-75
2022/05/16 04:01:28;;;;;;;6.20;3.38;;;;;;;12.27;60.56;101377.03;5109577;28;20101;-75
2022/05/16 04:03:55;;;;;;;6.47;3.47;;;;;;;12.12;61.39;101379.44;5113522;28;20047;-75
2022/05/16 04:06:22;;;;;;;9.05;3.33;;;;;;;12.25;61.12;101377.09;5105267;28;20051;-74
2022/05/16 04:08:49;;;;;;;6.97;3.25;;;;;;;12.17;61.40;101376.59;5111871;28;20047;-74
2022/05/16 04:11:17;;;;;;;5.07;3.20;;;;;;;12.33;60.91;101371.47;5112777;28;20089;-74
2022/05/16 04:13:44;;;;;;;6.93;3.10;;;;;;;12.46;61.03;101378.66;5113228;28;20085;-74
2022/05/16 04:16:11;;;;;;;5.15;3.25;;;;;;;12.58;60.84;101372.81;5114387;28;20047;-74
2022/05/16 04:18:37;;;;;;;8.23;2.90;;;;;;;12.75;60.06;101379.00;5113779;27;20119;-74
2022/05/16 04:21:04;;;;;;;6.15;3.10;;;;;;;12.78;59.85;101379.69;5113837;27;20058;-74
2022/05/16 04:23:31;;;;;;;7.38;3.25;;;;;;;12.86;59.95;101387.22;5113661;27;20093;-74
2022/05/16 04:25:58;;;;;;;6.78;3.15;;;;;;;13.15;59.11;101381.34;5113571;27;20039;-76
2022/05/16 04:28:25;;;;;;;5.28;3.15;;;;;;;13.20;58.91;101381.91;5113299;27;20112;-75
2022/05/16 04:30:52;;;;;;;10.40;3.63;;;;;;;13.21;58.82;101374.88;5111683;27;20128;-75
2022/05/16 04:33:19;;;;;;;7.72;3.30;;;;;;;13.26;58.93;101376.34;5112749;27;20044;-75
2022/05/16 04:35:46;;;;;;;7.57;3.40;;;;;;;13.34;58.66;101368.03;5113052;28;20134;-75
2022/05/16 04:38:12;;;;;;;6.35;3.25;;;;;;;13.15;59.55;101373.44;5113092;27;20059;-75
2022/05/16 04:42:40;;;;;;;6.07;2.92;;;;;;;13.38;58.89;101370.41;5112021;27;20044;-75
2022/05/16 04:43:26;;;;;;;7.20;3.00;;;;;;;13.74;57.83;101366.75;5112722;27;20058;-75
2022/05/16 04:45:52;;;;;;;7.50;3.22;;;;;;;13.70;57.94;101371.34;5112952;28;20071;-75
2022/05/16 04:48:19;;;;;;;6.00;3.15;;;;;;;13.95;57.59;101370.81;5113289;28;20043;-75
2022/05/16 04:50:45;;;;;;;9.77;3.65;;;;;;;14.03;57.08;101366.84;5112105;27;20047;-75
2022/05/16 04:53:12;;;;;;;8.68;3.38;;;;;;;14.01;57.44;101360.78;5106946;28;20488;-75
2022/05/16 04:55:38;;;;;;;6.00;2.95;;;;;;;14.00;57.90;101364.38;5111657;27;20480;-76
2022/05/16 04:58:05;;;;;;;8.70;3.38;;;;;;;14.31;57.67;101357.34;5113823;27;20548;-76
2022/05/16 05:00:33;;;;;;;5.68;2.90;;;;;;;14.41;56.83;101359.38;5112764;28;20043;-78
2022/05/16 05:02:59;;;;;;;4.45;2.95;;;;;;;14.67;56.38;101362.31;5112402;27;20051;-76
2022/05/16 05:05:26;;;;;;;6.38;3.03;;;;;;;14.75;56.42;101362.69;5103996;27;20166;-74
2022/05/16 05:07:52;;;;;;;7.70;2.83;;;;;;;14.99;55.83;101351.53;5112621;27;20583;-74
2022/05/16 05:15:54;;;;;;;6.00;3.08;;;;;;;15.74;54.70;101365.44;5105422;27;20196;-74
2022/05/16 05:18:21;;;;;;;5.88;3.22;;;;;;;16.04;54.39;101366.09;5112881;27;20496;-74
2022/05/16 05:20:47;;;;;;;6.30;3.08;;;;;;;16.46;52.85;101358.03;5112202;27;20131;-74
2022/05/16 05:23:13;;;;;;;9.30;3.30;;;;;;;16.71;52.57;101359.91;5113440;27;20043;-74
2022/05/16 05:25:40;;;;;;;7.35;3.00;;;;;;;17.06;51.00;101365.47;5113041;27;20040;-74
2022/05/16 05:28:06;;;;;;;9.65;3.20;;;;;;;17.29;51.27;101367.38;5113354;27;20048;-74
2022/05/16 05:30:33;;;;;;;5.57;2.95;;;;;;;17.75;48.47;101354.38;5112806;27;20491;-77
2022/05/16 05:33:01;;;;;;;8.95;3.53;;;;;;;17.64;49.12;101356.09;5113173;27;20102;-74
2022/05/16 05:35:29;;;;;;;6.47;3.10;;;;;;;17.55;49.97;101360.25;5112620;28;20116;-74
2022/05/16 05:37:55;;;;;;;10.13;3.67;;;;;;;17.52;49.96;101358.63;5112760;27;20048;-74
2022/05/16 05:40:22;;;;;;;7.32;3.55;;;;;;;17.43;50.04;101363.75;5112256;27;20487;-74
2022/05/16 05:42:50;;;;;;;5.90;3.25;;;;;;;17.63;49.77;101359.72;5109695;28;20449;-74
2022/05/16 05:45:17;;;;;;;9.88;3.33;;;;;;;18.17;48.64;101352.22;5112378;28;20048;-74
2022/05/16 05:47:43;;;;;;;7.18;3.35;;;;;;;18.67;47.67;101361.75;5110942;27;20085;-73
2022/05/16 05:50:12;;;;;;;27.08;4.55;;;;;;;18.55;47.00;101368.84;5112570;27;20048;-74
2022/05/16 05:52:39;;;;;;;17.92;4.50;;;;;;;18.80;47.07;101365.19;5102020;27;20051;-74
2022/05/16 05:55:06;;;;;;;11.50;3.15;;;;;;;19.09;47.36;101361.16;5112372;27;20050;-74
2022/05/16 05:57:32;;;;;;;15.27;3.40;;;;;;;19.14;46.58;101358.97;5112103;28;20092;-73
2022/05/16 05:59:59;;;;;;;7.38;3.10;;;;;;;19.36;45.92;101352.84;5111575;27;20404;-73
2022/05/16 06:02:25;;;;;;;8.20;3.17;;;;;;;19.69;46.17;101342.22;5113115;27;20488;-74
2022/05/16 06:04:52;;;;;;;7.13;3.35;;;;;;;19.51;45.51;101353.47;5132901;27;20050;-74
2022/05/16 06:07:20;;;;;;;10.45;3.45;;;;;;;19.92;45.18;101346.50;5117215;27;20052;-74
2022/05/16 06:09:46;;;;;;;8.02;3.08;;;;;;;20.21;45.93;101351.28;5117658;27;20075;-75
2022/05/16 06:12:13;;;;;;;9.38;2.95;;;;;;;20.27;44.20;101351.63;5111618;27;20614;-75
2022/05/16 06:14:43;;;;;;;6.75;2.92;;;;;;;20.45;42.82;101356.41;5112220;27;20480;-75
2022/05/16 06:17:10;;;;;;;6.78;3.30;;;;;;;21.01;42.05;101354.31;5124833;27;20705;-75
2022/05/16 06:19:36;;;;;;;6.28;3.00;;;;;;;21.01;43.33;101362.28;5125453;27;20496;-74
2022/05/16 06:22:03;;;;;;;10.30;3.30;;;;;;;21.02;42.99;101348.00;5112424;27;20051;-76
2022/05/16 06:27:15;;;;;;;5.95;3.10;;;;;;;22.21;40.57;101348.03;5111415;27;20055;-75
2022/05/16 06:29:41;;;;;;;4.90;2.70;;;;;;;21.60;41.00;101355.31;5110470;27;20126;-74
2022/05/16 06:32:08;;;;;;;9.18;3.13;;;;;;;22.07;40.19;101340.41;5131122;27;20043;-76
2022/05/16 06:34:34;;;;;;;7.32;3.22;;;;;;;22.47;38.29;101348.31;5113998;27;20040;-75
2022/05/16 06:37:00;;;;;;;5.18;2.63;;;;;;;22.80;39.41;101341.69;5111421;28;20047;-75
2022/05/16 06:39:27;;;;;;;8.25;2.60;;;;;;;23.25;38.55;101344.53;5110358;27;20047;-75
2022/05/16 06:41:54;;;;;;;4.43;2.45;;;;;;;23.23;38.62;101344.72;5110544;28;20403;-75
2022/05/16 06:44:21;;;;;;;9.10;3.00;;;;;;;22.03;38.29;101347.03;5111322;28;20553;-75
2022/05/16 06:46:48;;;;;;;15.90;3.13;;;;;;;21.58;40.15;101351.09;5111084;27;20093;-75
2022/05/16 06:49:14;;;;;;;6.45;2.95;;;;;;;21.49;39.99;101351.91;5110269;28;20050;-75
2022/05/16 06:51:41;;;;;;;5.20;2.47;;;;;;;20.74;40.68;101349.47;5110007;27;20048;-75
2022/05/16 06:54:08;;;;;;;7.13;2.83;;;;;;;21.35;41.87;101348.63;5111327;27;20051;-75
2022/05/16 06:56:34;;;;;;;7.45;3.03;;;;;;;21.95;38.79;101354.06;5111734;27;20511;-75
2022/05/16 06:59:02;;;;;;;7.07;2.80;;;;;;;21.64;39.66;101348.72;5120383;27;20108;-76
2022/05/16 07:01:28;;;;;;;5.45;2.65;;;;;;;22.44;37.87;101345.06;5118586;27;20043;-75
2022/05/16 07:03:54;;;;;;;7.07;2.78;;;;;;;22.55;39.00;101343.13;5110765;27;20100;-75
2022/05/16 07:06:21;;;;;;;9.57;2.70;;;;;;;22.54;38.24;101337.94;5111796;28;20171;-75
2022/05/16 07:08:47;;;;;;;5.07;2.30;;;;;;;22.86;38.57;101346.50;5111614;27;20047;-75
2022/05/16 07:11:14;;;;;;;8.93;3.00;;;;;;;22.60;37.81;101340.03;5121175;28;20058;-75
2022/05/16 07:13:40;;;;;;;6.40;2.60;;;;;;;22.57;37.41;101340.31;5134443;27;20073;-76
2022/05/16 07:16:08;;;;;;;7.95;3.03;;;;;;;22.06;38.28;101336.06;5112709;27;20456;-76
2022/05/16 07:18:34;;;;;;;4.35;2.33;;;;;;;21.93;39.04;101342.66;5126685;27;20039;-76
2022/05/16 07:21:01;;;;;;;11.23;2.45;;;;;;;22.44;41.61;101342.41;5114037;28;20051;-75
2022/05/16 07:23:27;;;;;;;9.73;2.75;;;;;;;22.74;38.40;101336.94;5113209;28;20051;-76
2022/05/16 07:28:38;;;;;;;12.82;2.53;;;;;;;22.69;37.69;101333.84;5124281;27;20166;-76
2022/05/16 07:31:05;;;;;;;10.60;2.78;;;;;;;23.18;37.42;101324.72;5112577;28;20043;-76
2022/05/16 07:33:34;;;;;;;6.88;2.13;;;;;;;23.28;36.10;101326.38;5112999;27;20040;-75
2022/05/16 07:36:00;;;;;;;7.30;2.65;;;;;;;24.03;36.01;101321.75;5111755;28;20058;-75
2022/05/16 07:38:27;;;;;;;11.18;2.70;;;;;;;24.95;33.39;101331.16;5110973;28;20047;-75
2022/05/16 07:40:54;;;;;;;4.45;2.40;;;;;;;24.64;34.21;101325.38;5115865;27;20039;-75
2022/05/16 07:43:21;;;;;;;5.35;2.40;;;;;;;24.64;34.36;101337.94;5111294;27;20043;-75
2022/05/16 07:45:48;;;;;;;7.22;2.53;;;;;;;24.41;32.83;101332.22;5099541;27;20046;-75
2022/05/16 07:48:15;;;;;;;6.72;2.10;;;;;;;24.30;33.57;101331.59;5092568;28;20044;-75
2022/05/16 07:50:44;;;;;;;7.05;2.60;;;;;;;24.56;33.69;101322.63;5095063;28;20383;-75
2022/05/16 07:53:12;;;;;;;10.32;2.35;;;;;;;25.63;33.97;101323.16;5104408;27;20047;-75
2022/05/16 07:55:40;;;;;;;5.28;2.20;;;;;;;25.74;31.44;101325.53;5109896;27;20388;-75
2022/05/16 07:58:07;;;;;;;6.80;2.38;;;;;;;24.75;33.68;101323.44;5109909;27;20047;-75
2022/05/16 08:00:34;;;;;;;6.32;2.53;;;;;;;24.68;32.34;101320.53;5108383;27;20032;-75
2022/05/16 08:03:01;;;;;;;8.35;2.75;;;;;;;24.79;32.63;101328.34;5109879;27;20101;-77
2022/05/16 08:05:28;;;;;;;4.55;2.40;;;;;;;25.54;31.05;101332.16;5109087;27;20051;-76
2022/05/16 08:10:41;;;;;;;5.93;2.20;;;;;;;25.62;30.52;101329.50;5081643;27;20044;-76
2022/05/16 08:13:09;;;;;;;8.13;2.50;;;;;;;24.66;32.89;101319.84;5108984;27;20047;-76
2022/05/16 08:15:38;;;;;;;4.45;2.10;;;;;;;25.19;33.13;101322.41;5109347;27;20044;-76
2022/05/16 08:18:05;;;;;;;7.13;2.72;;;;;;;25.74;31.20;101311.25;5109328;27;20607;-76
2022/05/16 08:20:33;;;;;;;7.30;2.70;;;;;;;26.53;29.97;101303.50;5108630;27;20044;-77
2022/05/16 08:23:00;;;;;;;4.25;2.03;;;;;;;26.33;29.22;101299.47;5109397;27;20085;-76
2022/05/16 08:25:27;;;;;;;9.32;2.28;;;;;;;26.31;29.46;101304.19;5105771;27;20093;-77
2022/05/16 08:27:53;;;;;;;7.30;1.85;;;;;;;26.52;29.08;101293.75;5108929;28;20047;-77
2022/05/16 08:30:22;;;;;;;6.22;1.90;;;;;;;26.30;28.59;101281.81;5107928;28;20044;-77
2022/05/16 08:32:49;;;;;;;6.28;2.60;;;;;;;25.66;29.28;101287.91;5108810;28;20035;-76
2022/05/16 08:35:18;;;;;;;10.85;2.13;;;;;;;25.87;30.80;101290.16;5109091;28;20036;-77
2022/05/16 08:40:38;;;;;;;9.52;2.45;;;;;;;26.29;29.10;101279.28;5108214;27;20755;-77
2022/05/16 08:43:11;;;;;;;9.93;2.45;;;;;;;26.47;28.97;101269.19;5106325;28;20044;-77
2022/05/16 08:45:40;;;;;;;7.57;2.55;;;;;;;27.68;26.63;101265.34;5108990;28;20047;-77
2022/05/16 08:48:12;;;;;;;7.43;2.22;;;;;;;26.43;28.23;101276.75;5109524;27;20047;-77
2022/05/16 08:50:42;;;;;;;6.68;2.20;;;;;;;25.83;28.72;101268.13;5111594;27;20051;-77
2022/05/16 08:53:14;;;;;;;7.80;2.20;;;;;;;26.96;31.30;101267.31;5112736;28;20055;-77
2022/05/16 08:55:43;;;;;;;;;;;;;;;26.76;27.98;101257.88;5112741;27;20043;-77
2022/05/16 08:58:12;;;;;;;8.80;1.85;;;;;;;26.87;27.29;101252.16;5111363;27;19969;-77
2022/05/16 09:00:47;;;;;;;4.95;2.08;;;;;;;27.41;26.23;101253.16;5101862;28;20076;-77
2022/05/16 09:03:18;;;;;;;6.32;2.20;;;;;;;27.24;26.21;101256.91;5112531;27;20044;-77
2022/05/16 09:05:51;;;;;;;7.15;2.00;;;;;;;27.63;26.17;101249.72;5112260;27;20126;-77
2022/05/16 09:08:25;;;;;;;7.90;2.60;;;;;;;27.02;28.34;101253.97;5111962;27;20130;-77
2022/05/16 09:11:02;;;;;;;7.75;2.20;;;;;;;27.82;28.82;101254.63;5110860;27;20044;-77
2022/05/16 09:13:42;;;;;;;8.73;2.40;;;;;;;28.21;24.62;101254.53;5111933;27;20051;-77
2022/05/16 09:16:20;;;;;;;9.50;2.33;;;;;;;27.34;25.02;101262.97;5102495;28;20047;-77
2022/05/16 09:18:55;;;;;;;10.20;2.00;;;;;;;26.78;27.18;101253.19;5091290;28;20094;-77
2022/05/16 09:21:29;;;;;;;7.97;2.10;;;;;;;27.30;26.11;101261.63;5091846;28;20044;-77
2022/05/16 09:24:05;;;;;;;12.55;2.10;;;;;;;27.81;24.91;101261.03;5103766;28;20047;-76
2022/05/16 09:26:50;;;;;;;6.25;2.00;;;;;;;28.10;24.44;101257.66;5111926;27;20487;-77
2022/05/16 09:29:24;;;;;;;6.38;2.17;;;;;;;27.49;24.40;101256.66;5111125;27;20433;-77
2022/05/16 09:31:54;;;;;;;5.20;2.05;;;;;;;26.49;26.44;101249.22;5111325;27;20555;-77
2022/05/16 09:34:20;;;;;;;4.70;2.17;;;;;;;26.57;27.59;101251.03;5092372;28;20492;-77
2022/05/16 09:36:49;;;;;;;8.70;2.15;;;;;;;27.57;26.33;101250.41;5091766;28;20044;-77
2022/05/16 09:39:20;;;;;;;4.55;2.10;;;;;;;27.28;25.38;101240.25;5098205;27;20047;-77
2022/05/16 09:41:55;;;;;;;8.02;2.22;;;;;;;27.43;24.68;101241.19;5111789;27;20044;-77
2022/05/16 09:44:25;;;;;;;6.63;2.42;;;;;;;28.12;25.48;101228.69;5111791;27;20048;-76
2022/05/16 09:47:16;;;;;;;7.57;2.25;;;;;;;28.35;24.24;101229.47;5119514;27;20088;-76
2022/05/16 09:49:42;;;;;;;11.65;2.00;;;;;;;28.31;24.00;101230.84;5122766;27;20047;-76
2022/05/16 09:52:16;;;;;;;9.23;2.38;;;;;;;27.78;24.05;101220.97;5111423;27;20436;-76
2022/05/16 09:54:43;;;;;;;13.77;2.17;;;;;;;27.38;25.09;101238.16;5110914;27;20058;-76
2022/05/16 09:57:20;;;;;;;5.00;2.03;;;;;;;27.69;25.14;101222.03;5110732;27;20051;-76
2022/05/16 09:59:50;;;;;;;5.00;1.83;;;;;;;27.96;24.17;101234.16;5110091;27;20050;-77
2022/05/16 10:02:22;;;;;;;6.22;2.28;;;;;;;28.00;24.98;101225.53;5111437;27;20606;-77
2022/05/16 10:04:52;;;;;;;6.13;2.10;;;;;;;28.81;23.23;101227.50;5111305;27;20040;-77
2022/05/16 10:07:23;;;;;;;6.47;2.30;;;;;;;29.13;23.39;101222.72;5109709;27;20472;-77
2022/05/16 10:09:52;;;;;;;6.80;2.00;;;;;;;28.39;24.27;101219.97;5108499;27;20043;-77
2022/05/16 10:12:23;;;;;;;7.13;2.33;;;;;;;27.89;25.05;101220.56;5114992;27;20048;-77
2022/05/16 10:14:50;;;;;;;12.10;2.00;;;;;;;28.62;25.83;101225.31;5111016;28;20040;-77
2022/05/16 10:17:23;;;;;;;7.32;2.30;;;;;;;29.25;25.23;101216.66;5110230;28;20040;-77
2022/05/16 10:19:53;;;;;;;10.40;2.47;;;;;;;29.44;25.24;101205.31;5109958;27;20426;-77
2022/05/16 10:22:25;;;;;;;5.97;2.25;;;;;;;29.19;23.65;101219.28;5110481;27;20496;-77
2022/05/16 10:24:55;;;;;;;5.70;1.95;;;;;;;28.00;24.87;101211.22;5107346;27;20090;-76
2022/05/16 10:27:28;;;;;;;7.18;2.53;;;;;;;28.33;24.37;101211.78;5110045;27;20100;-77
2022/05/16 10:29:56;;;;;;;5.15;2.53;;;;;;;28.46;24.11;101203.88;5109314;28;20066;-77
2022/05/16 10:35:28;;;;;;;5.63;2.10;;;;;;;29.70;25.28;101199.34;5110637;28;20069;-70
2022/05/16 10:37:58;;;;;;;7.53;2.45;;;;;;;29.73;24.56;101196.25;5096922;28;20455;-70
2022/05/16 10:40:29;;;;;;;12.63;2.47;;;;;;;30.48;22.45;101198.41;5109210;28;20055;-70
2022/05/16 10:43:16;;;;;;;16.83;3.10;;;;;;;30.33;22.88;101186.81;5109967;27;20135;-70
2022/05/16 10:45:48;;;;;;;6.55;2.05;;;;;;;29.55;23.87;101187.75;5113141;27;20035;-70
2022/05/16 10:48:24;;;;;;;5.68;2.60;;;;;;;29.54;24.57;101196.88;5130439;27;20058;-75
2022/05/16 10:50:53;;;;;;;8.70;2.08;;;;;;;28.22;25.77;101185.25;5130507;27;20067;-70
2022/05/16 10:53:23;;;;;;;7.32;2.55;;;;;;;28.45;26.56;101188.75;5122742;27;20043;-70
2022/05/16 10:56:01;;;;;;;6.40;2.20;;;;;;;28.31;26.21;101181.44;5108661;27;20043;-70
2022/05/16 10:58:43;;;;;;;10.07;2.47;;;;;;;28.51;25.99;101185.31;5110061;27;20476;-70
2022/05/16 11:01:12;;;;;;;8.90;2.85;;;;;;;28.93;24.52;101185.53;5127613;27;20119;-69
2022/05/16 11:04:01;;;;;;;10.40;2.40;;;;;;;29.29;24.49;101163.13;5130905;27;20039;-73
2022/05/16 11:06:45;;;;;;;5.22;2.60;;;;;;;29.81;24.91;101158.28;5130461;27;20123;-78
2022/05/16 11:09:18;;;;;;;8.02;2.50;;;;;;;29.29;25.89;101180.19;5114485;27;20100;-76
2022/05/16 11:11:55;;;;;;;6.70;2.72;;;;;;;28.78;26.35;101187.41;5108810;27;20458;-77
2022/05/16 11:14:29;;;;;;;10.10;2.97;;;;;;;28.82;25.65;101180.59;5110075;27;20077;-77
2022/05/16 11:17:05;;;;;;;8.60;2.70;;;;;;;30.24;24.97;101169.88;5127866;27;20067;-76
2022/05/16 11:19:43;;;;;;;6.97;2.40;;;;;;;31.23;22.43;101165.03;5129658;27;20096;-76
2022/05/16 11:22:15;;;;;;;7.03;2.60;;;;;;;30.39;23.27;101165.22;5124238;27;20094;-76
2022/05/16 11:24:47;;;;;;;9.82;3.05;;;;;;;30.99;24.76;101162.88;5114518;27;20456;-76
2022/05/16 11:27:22;;;;;;;7.57;3.25;;;;;;;29.70;24.24;101164.19;5109592;27;20460;-76
2022/05/16 11:30:02;;;;;;;6.55;2.47;;;;;;;30.48;25.76;101156.97;5114571;27;20043;-75
2022/05/16 11:32:47;;;;;;;6.40;2.55;;;;;;;29.99;24.21;101152.41;5129918;27;20051;-75
2022/05/16 11:35:23;;;;;;;5.63;2.55;;;;;;;28.35;26.29;101171.97;5130044;27;20059;-75
2022/05/16 11:38:14;;;;;;;7.25;2.72;;;;;;;29.10;27.05;101155.59;5126809;27;20040;-76
2022/05/16 11:40:48;;;;;;;8.23;2.60;;;;;;;29.48;24.73;101146.31;5116703;27;20093;-76
2022/05/16 11:43:21;;;;;;;4.72;2.45;;;;;;;29.06;26.05;101157.00;5109506;28;20113;-75
2022/05/16 11:46:18;;;;;;;8.40;2.70;;;;;;;28.61;26.85;101149.94;5109402;28;20043;-75
2022/05/16 11:48:54;;;;;;;6.60;2.70;;;;;;;28.76;27.75;101143.56;5108705;28;20123;-75
2022/05/16 11:51:29;;;;;;;8.65;3.17;;;;;;;29.56;26.73;101148.88;5109814;28;20175;-76
2022/05/16 11:53:59;;;;;;;7.40;2.80;;;;;;;29.87;26.52;101144.00;5112884;27;20484;-75
2022/05/16 12:02:12;;;;;;;7.05;2.88;;;;;;;30.69;24.09;101141.47;5108889;28;20588;-75
2022/05/16 12:04:43;;;;;;;6.78;2.50;;;;;;;31.07;25.81;101138.34;5109355;27;20051;-75
2022/05/16 12:07:17;;;;;;;8.57;2.88;;;;;;;31.39;24.33;101134.88;5115878;27;20045;-75